sensor_id;sensor_type;location;lat;lon;timestamp;temperature;humidity
21502;DHT22;27639;48.674;9.242;2023-07-31T00:01:01;20.20;53.90
21502;DHT22;27639;48.674;9.242;2023-07-31T00:03:27;20.20;53.70
21502;DHT22;27639;48.674;9.242;2023-07-31T00:05:52;20.20;53.70
21502;DHT22;27639;48.674;9.242;2023-07-31T00:08:18;20.20;53.60
21502;DHT22;27639;48.674;9.242;2023-07-31T00:10:43;20.20;53.60
21502;DHT22;27639;48.674;9.242;2023-07-31T00:13:09;20.20;54.30
21502;DHT22;27639;48.674;9.242;2023-07-31T00:15:34;20.30;53.70
21502;DHT22;27639;48.674;9.242;2023-07-31T00:18:00;20.20;53.60
21502;DHT22;27639;48.674;9.242;2023-07-31T00:20:26;20.30;53.70
21502;DHT22;27639;48.674;9.242;2023-07-31T00:22:52;20.20;53.60
21502;DHT22;27639;48.674;9.242;2023-07-31T00:25:17;20.20;53.70
21502;DHT22;27639;48.674;9.242;2023-07-31T00:27:43;20.20;53.80
21502;DHT22;27639;48.674;9.242;2023-07-31T00:30:10;20.20;53.90
21502;DHT22;27639;48.674;9.242;2023-07-31T00:32:36;20.10;54.00
21502;DHT22;27639;48.674;9.242;2023-07-31T00:35:01;20.00;54.00
21502;DHT22;27639;48.674;9.242;2023-07-31T00:37:27;19.90;54.20
21502;DHT22;27639;48.674;9.242;2023-07-31T00:39:53;19.90;54.40
21502;DHT22;27639;48.674;9.242;2023-07-31T00:42:18;19.90;54.60
21502;DHT22;27639;48.674;9.242;2023-07-31T00:44:44;19.80;54.50
21502;DHT22;27639;48.674;9.242;2023-07-31T00:47:09;19.80;54.50
21502;DHT22;27639;48.674;9.242;2023-07-31T00:49:35;19.80;54.40
21502;DHT22;27639;48.674;9.242;2023-07-31T00:52:01;19.80;54.40
21502;DHT22;27639;48.674;9.242;2023-07-31T00:54:27;19.90;54.50
21502;DHT22;27639;48.674;9.242;2023-07-31T00:56:54;19.90;54.30
21502;DHT22;27639;48.674;9.242;2023-07-31T00:59:20;19.90;54.30
21502;DHT22;27639;48.674;9.242;2023-07-31T01:01:46;19.90;54.40
21502;DHT22;27639;48.674;9.242;2023-07-31T01:04:12;19.90;54.40
21502;DHT22;27639;48.674;9.242;2023-07-31T01:06:43;19.90;54.30
21502;DHT22;27639;48.674;9.242;2023-07-31T01:11:46;19.80;54.80
21502;DHT22;27639;48.674;9.242;2023-07-31T01:14:13;19.70;54.10
21502;DHT22;27639;48.674;9.242;2023-07-31T01:16:39;19.70;54.20
21502;DHT22;27639;48.674;9.242;2023-07-31T01:19:06;19.70;54.10
21502;DHT22;27639;48.674;9.242;2023-07-31T01:24:20;19.70;54.10
21502;DHT22;27639;48.674;9.242;2023-07-31T01:26:54;19.70;53.90
21502;DHT22;27639;48.674;9.242;2023-07-31T01:32:01;19.70;54.20
21502;DHT22;27639;48.674;9.242;2023-07-31T01:34:29;19.80;54.40
21502;DHT22;27639;48.674;9.242;2023-07-31T01:36:56;19.80;54.50
21502;DHT22;27639;48.674;9.242;2023-07-31T01:39:23;19.80;54.50
21502;DHT22;27639;48.674;9.242;2023-07-31T01:41:49;19.80;54.60
21502;DHT22;27639;48.674;9.242;2023-07-31T01:44:15;19.80;54.80
21502;DHT22;27639;48.674;9.242;2023-07-31T01:46:40;19.80;54.90
21502;DHT22;27639;48.674;9.242;2023-07-31T01:49:06;19.90;55.10
21502;DHT22;27639;48.674;9.242;2023-07-31T01:51:31;19.80;55.10
21502;DHT22;27639;48.674;9.242;2023-07-31T01:54:00;19.80;55.30
21502;DHT22;27639;48.674;9.242;2023-07-31T01:56:25;19.70;55.20
21502;DHT22;27639;48.674;9.242;2023-07-31T01:58:51;19.70;55.30
21502;DHT22;27639;48.674;9.242;2023-07-31T02:01:16;19.60;55.40
21502;DHT22;27639;48.674;9.242;2023-07-31T02:03:42;19.60;55.40
21502;DHT22;27639;48.674;9.242;2023-07-31T02:06:07;19.60;55.50
21502;DHT22;27639;48.674;9.242;2023-07-31T02:08:33;19.50;55.50
21502;DHT22;27639;48.674;9.242;2023-07-31T02:10:59;19.40;55.40
21502;DHT22;27639;48.674;9.242;2023-07-31T02:13:24;19.30;55.40
21502;DHT22;27639;48.674;9.242;2023-07-31T02:15:50;19.30;55.70
21502;DHT22;27639;48.674;9.242;2023-07-31T02:18:16;19.30;55.90
21502;DHT22;27639;48.674;9.242;2023-07-31T02:20:41;19.30;55.90
21502;DHT22;27639;48.674;9.242;2023-07-31T02:23:07;19.20;55.90
21502;DHT22;27639;48.674;9.242;2023-07-31T02:25:33;19.20;56.00
21502;DHT22;27639;48.674;9.242;2023-07-31T02:27:58;19.10;56.20
21502;DHT22;27639;48.674;9.242;2023-07-31T02:30:24;19.00;56.30
21502;DHT22;27639;48.674;9.242;2023-07-31T02:32:49;19.00;56.50
21502;DHT22;27639;48.674;9.242;2023-07-31T02:35:15;18.90;56.50
21502;DHT22;27639;48.674;9.242;2023-07-31T02:37:42;18.90;56.50
21502;DHT22;27639;48.674;9.242;2023-07-31T02:40:07;18.90;56.60
21502;DHT22;27639;48.674;9.242;2023-07-31T02:42:33;18.90;56.60
21502;DHT22;27639;48.674;9.242;2023-07-31T02:44:59;18.90;56.50
21502;DHT22;27639;48.674;9.242;2023-07-31T02:47:24;18.90;56.50
21502;DHT22;27639;48.674;9.242;2023-07-31T02:49:50;19.00;56.60
21502;DHT22;27639;48.674;9.242;2023-07-31T02:52:15;19.00;56.50
21502;DHT22;27639;48.674;9.242;2023-07-31T02:54:42;19.10;56.60
21502;DHT22;27639;48.674;9.242;2023-07-31T02:57:08;19.00;56.60
21502;DHT22;27639;48.674;9.242;2023-07-31T02:59:34;19.10;56.60
21502;DHT22;27639;48.674;9.242;2023-07-31T03:02:00;19.00;56.50
21502;DHT22;27639;48.674;9.242;2023-07-31T03:04:25;19.00;56.50
21502;DHT22;27639;48.674;9.242;2023-07-31T03:06:51;19.00;56.50
21502;DHT22;27639;48.674;9.242;2023-07-31T03:09:16;18.90;56.40
21502;DHT22;27639;48.674;9.242;2023-07-31T03:11:42;18.90;56.50
21502;DHT22;27639;48.674;9.242;2023-07-31T03:14:07;18.90;56.70
21502;DHT22;27639;48.674;9.242;2023-07-31T03:16:33;18.90;56.80
21502;DHT22;27639;48.674;9.242;2023-07-31T03:18:58;18.90;56.90
21502;DHT22;27639;48.674;9.242;2023-07-31T03:21:24;18.90;56.90
21502;DHT22;27639;48.674;9.242;2023-07-31T03:23:49;18.90;56.60
21502;DHT22;27639;48.674;9.242;2023-07-31T03:26:15;19.00;56.70
21502;DHT22;27639;48.674;9.242;2023-07-31T03:28:41;19.00;56.70
21502;DHT22;27639;48.674;9.242;2023-07-31T03:31:06;19.00;56.70
21502;DHT22;27639;48.674;9.242;2023-07-31T03:33:33;18.90;56.60
21502;DHT22;27639;48.674;9.242;2023-07-31T03:35:59;18.80;56.70
21502;DHT22;27639;48.674;9.242;2023-07-31T03:38:24;18.80;56.80
21502;DHT22;27639;48.674;9.242;2023-07-31T03:40:50;18.80;56.80
21502;DHT22;27639;48.674;9.242;2023-07-31T03:43:16;18.80;56.80
21502;DHT22;27639;48.674;9.242;2023-07-31T03:45:41;18.80;57.40
21502;DHT22;27639;48.674;9.242;2023-07-31T03:48:07;18.80;56.80
21502;DHT22;27639;48.674;9.242;2023-07-31T03:50:33;18.80;56.60
21502;DHT22;27639;48.674;9.242;2023-07-31T03:52:58;18.80;56.60
21502;DHT22;27639;48.674;9.242;2023-07-31T03:55:24;18.80;56.50
21502;DHT22;27639;48.674;9.242;2023-07-31T03:57:50;18.80;56.70
21502;DHT22;27639;48.674;9.242;2023-07-31T04:00:15;18.80;56.60
21502;DHT22;27639;48.674;9.242;2023-07-31T04:02:41;18.80;56.50
21502;DHT22;27639;48.674;9.242;2023-07-31T04:05:07;18.80;56.50
21502;DHT22;27639;48.674;9.242;2023-07-31T04:07:33;18.70;56.40
21502;DHT22;27639;48.674;9.242;2023-07-31T04:09:59;18.70;56.50
21502;DHT22;27639;48.674;9.242;2023-07-31T04:12:25;18.70;56.90
21502;DHT22;27639;48.674;9.242;2023-07-31T04:14:50;18.70;56.90
21502;DHT22;27639;48.674;9.242;2023-07-31T04:17:17;18.70;56.80
21502;DHT22;27639;48.674;9.242;2023-07-31T04:19:43;18.60;56.70
21502;DHT22;27639;48.674;9.242;2023-07-31T04:22:08;18.60;56.80
21502;DHT22;27639;48.674;9.242;2023-07-31T04:24:34;18.60;56.90
21502;DHT22;27639;48.674;9.242;2023-07-31T04:26:59;18.50;57.00
21502;DHT22;27639;48.674;9.242;2023-07-31T04:29:25;18.50;57.20
21502;DHT22;27639;48.674;9.242;2023-07-31T04:31:51;18.40;57.20
21502;DHT22;27639;48.674;9.242;2023-07-31T04:34:16;18.40;57.10
21502;DHT22;27639;48.674;9.242;2023-07-31T04:36:42;18.40;57.80
21502;DHT22;27639;48.674;9.242;2023-07-31T04:39:07;18.60;57.80
21502;DHT22;27639;48.674;9.242;2023-07-31T04:41:33;18.70;57.40
21502;DHT22;27639;48.674;9.242;2023-07-31T04:43:59;18.80;57.40
21502;DHT22;27639;48.674;9.242;2023-07-31T04:46:24;18.90;57.50
21502;DHT22;27639;48.674;9.242;2023-07-31T04:48:50;19.00;57.60
21502;DHT22;27639;48.674;9.242;2023-07-31T04:51:15;19.10;57.80
21502;DHT22;27639;48.674;9.242;2023-07-31T04:53:41;19.20;57.80
21502;DHT22;27639;48.674;9.242;2023-07-31T04:56:06;19.30;57.60
21502;DHT22;27639;48.674;9.242;2023-07-31T04:58:32;19.30;58.10
21502;DHT22;27639;48.674;9.242;2023-07-31T05:00:58;19.40;57.30
21502;DHT22;27639;48.674;9.242;2023-07-31T05:03:23;19.40;57.00
21502;DHT22;27639;48.674;9.242;2023-07-31T05:05:50;19.40;56.60
21502;DHT22;27639;48.674;9.242;2023-07-31T05:08:16;19.40;56.50
21502;DHT22;27639;48.674;9.242;2023-07-31T05:10:43;19.40;56.70
21502;DHT22;27639;48.674;9.242;2023-07-31T05:13:08;19.40;56.80
21502;DHT22;27639;48.674;9.242;2023-07-31T05:15:34;19.40;56.90
21502;DHT22;27639;48.674;9.242;2023-07-31T05:17:59;19.40;56.90
21502;DHT22;27639;48.674;9.242;2023-07-31T05:20:25;19.40;57.00
21502;DHT22;27639;48.674;9.242;2023-07-31T05:22:51;19.40;57.10
21502;DHT22;27639;48.674;9.242;2023-07-31T05:25:16;19.40;57.30
21502;DHT22;27639;48.674;9.242;2023-07-31T05:27:42;19.40;57.40
21502;DHT22;27639;48.674;9.242;2023-07-31T05:30:08;19.40;57.60
21502;DHT22;27639;48.674;9.242;2023-07-31T05:32:34;19.50;58.00
21502;DHT22;27639;48.674;9.242;2023-07-31T05:34:59;19.60;58.40
21502;DHT22;27639;48.674;9.242;2023-07-31T05:37:25;19.80;58.30
21502;DHT22;27639;48.674;9.242;2023-07-31T05:39:50;20.00;58.00
21502;DHT22;27639;48.674;9.242;2023-07-31T05:42:17;20.20;57.70
21502;DHT22;27639;48.674;9.242;2023-07-31T05:44:42;20.40;56.90
21502;DHT22;27639;48.674;9.242;2023-07-31T05:47:09;20.60;56.50
21502;DHT22;27639;48.674;9.242;2023-07-31T05:49:34;20.90;56.20
21502;DHT22;27639;48.674;9.242;2023-07-31T05:52:00;21.10;55.60
21502;DHT22;27639;48.674;9.242;2023-07-31T05:54:26;21.30;55.30
21502;DHT22;27639;48.674;9.242;2023-07-31T05:56:51;21.50;55.10
21502;DHT22;27639;48.674;9.242;2023-07-31T05:59:17;21.60;54.50
21502;DHT22;27639;48.674;9.242;2023-07-31T06:01:42;21.70;54.20
21502;DHT22;27639;48.674;9.242;2023-07-31T06:04:08;21.80;53.30
21502;DHT22;27639;48.674;9.242;2023-07-31T06:06:34;21.80;52.80
21502;DHT22;27639;48.674;9.242;2023-07-31T06:09:00;21.80;52.40
21502;DHT22;27639;48.674;9.242;2023-07-31T06:11:25;21.70;52.30
21502;DHT22;27639;48.674;9.242;2023-07-31T06:13:51;21.80;52.50
21502;DHT22;27639;48.674;9.242;2023-07-31T06:16:16;21.80;52.70
21502;DHT22;27639;48.674;9.242;2023-07-31T06:18:42;21.80;52.40
21502;DHT22;27639;48.674;9.242;2023-07-31T06:21:09;21.80;52.40
21502;DHT22;27639;48.674;9.242;2023-07-31T06:23:34;21.80;52.20
21502;DHT22;27639;48.674;9.242;2023-07-31T06:26:00;21.90;51.90
21502;DHT22;27639;48.674;9.242;2023-07-31T06:28:29;21.80;51.80
21502;DHT22;27639;48.674;9.242;2023-07-31T06:30:55;21.90;52.10
21502;DHT22;27639;48.674;9.242;2023-07-31T06:33:20;22.00;52.30
21502;DHT22;27639;48.674;9.242;2023-07-31T06:35:46;22.20;52.30
21502;DHT22;27639;48.674;9.242;2023-07-31T06:38:11;22.30;51.90
21502;DHT22;27639;48.674;9.242;2023-07-31T06:40:37;22.50;52.20
21502;DHT22;27639;48.674;9.242;2023-07-31T06:43:03;22.60;51.60
21502;DHT22;27639;48.674;9.242;2023-07-31T06:45:37;22.60;51.20
21502;DHT22;27639;48.674;9.242;2023-07-31T06:48:03;22.60;50.60
21502;DHT22;27639;48.674;9.242;2023-07-31T06:50:33;22.60;50.90
21502;DHT22;27639;48.674;9.242;2023-07-31T06:52:58;22.60;50.90
21502;DHT22;27639;48.674;9.242;2023-07-31T06:55:24;22.60;51.10
21502;DHT22;27639;48.674;9.242;2023-07-31T06:57:52;22.70;51.40
21502;DHT22;27639;48.674;9.242;2023-07-31T07:00:19;22.90;51.50
21502;DHT22;27639;48.674;9.242;2023-07-31T07:02:45;23.00;51.30
21502;DHT22;27639;48.674;9.242;2023-07-31T07:05:13;23.20;50.70
21502;DHT22;27639;48.674;9.242;2023-07-31T07:07:39;23.30;50.40
21502;DHT22;27639;48.674;9.242;2023-07-31T07:10:06;23.30;50.00
21502;DHT22;27639;48.674;9.242;2023-07-31T07:12:32;23.40;50.00
21502;DHT22;27639;48.674;9.242;2023-07-31T07:15:01;23.50;49.70
21502;DHT22;27639;48.674;9.242;2023-07-31T07:17:29;23.50;49.40
21502;DHT22;27639;48.674;9.242;2023-07-31T07:19:59;23.40;49.20
21502;DHT22;27639;48.674;9.242;2023-07-31T07:22:25;23.40;49.20
21502;DHT22;27639;48.674;9.242;2023-07-31T07:24:51;23.30;49.00
21502;DHT22;27639;48.674;9.242;2023-07-31T07:27:17;23.30;49.30
21502;DHT22;27639;48.674;9.242;2023-07-31T07:29:42;23.20;49.10
21502;DHT22;27639;48.674;9.242;2023-07-31T07:32:08;23.20;49.10
21502;DHT22;27639;48.674;9.242;2023-07-31T07:34:33;23.10;48.90
21502;DHT22;27639;48.674;9.242;2023-07-31T07:36:59;23.00;49.00
21502;DHT22;27639;48.674;9.242;2023-07-31T07:39:24;23.00;49.40
21502;DHT22;27639;48.674;9.242;2023-07-31T07:41:50;23.10;49.70
21502;DHT22;27639;48.674;9.242;2023-07-31T07:44:16;23.00;49.30
21502;DHT22;27639;48.674;9.242;2023-07-31T07:46:41;22.90;49.00
21502;DHT22;27639;48.674;9.242;2023-07-31T07:49:07;22.80;49.10
21502;DHT22;27639;48.674;9.242;2023-07-31T07:51:33;22.70;49.30
21502;DHT22;27639;48.674;9.242;2023-07-31T07:53:59;22.60;49.50
21502;DHT22;27639;48.674;9.242;2023-07-31T07:56:27;22.60;49.50
21502;DHT22;27639;48.674;9.242;2023-07-31T07:58:54;22.70;50.20
21502;DHT22;27639;48.674;9.242;2023-07-31T08:01:20;22.70;50.00
21502;DHT22;27639;48.674;9.242;2023-07-31T08:03:47;22.90;50.40
21502;DHT22;27639;48.674;9.242;2023-07-31T08:06:13;23.00;50.30
21502;DHT22;27639;48.674;9.242;2023-07-31T08:08:38;23.20;50.40
21502;DHT22;27639;48.674;9.242;2023-07-31T08:11:04;23.30;49.90
21502;DHT22;27639;48.674;9.242;2023-07-31T08:13:30;23.40;49.80
21502;DHT22;27639;48.674;9.242;2023-07-31T08:15:55;23.70;49.90
21502;DHT22;27639;48.674;9.242;2023-07-31T08:18:21;23.80;49.60
21502;DHT22;27639;48.674;9.242;2023-07-31T08:20:47;23.80;49.00
21502;DHT22;27639;48.674;9.242;2023-07-31T08:23:12;23.80;48.50
21502;DHT22;27639;48.674;9.242;2023-07-31T08:25:38;23.90;48.50
21502;DHT22;27639;48.674;9.242;2023-07-31T08:28:05;24.00;48.90
21502;DHT22;27639;48.674;9.242;2023-07-31T08:30:31;24.10;48.20
21502;DHT22;27639;48.674;9.242;2023-07-31T08:32:58;24.20;48.30
21502;DHT22;27639;48.674;9.242;2023-07-31T08:35:24;24.30;48.00
21502;DHT22;27639;48.674;9.242;2023-07-31T08:37:51;24.30;47.10
21502;DHT22;27639;48.674;9.242;2023-07-31T08:40:16;24.40;47.60
21502;DHT22;27639;48.674;9.242;2023-07-31T08:42:44;24.40;47.80
21502;DHT22;27639;48.674;9.242;2023-07-31T08:45:14;24.60;47.50
21502;DHT22;27639;48.674;9.242;2023-07-31T08:47:41;24.80;47.20
21502;DHT22;27639;48.674;9.242;2023-07-31T08:50:08;24.90;47.20
21502;DHT22;27639;48.674;9.242;2023-07-31T08:52:33;25.10;47.40
21502;DHT22;27639;48.674;9.242;2023-07-31T08:54:59;25.20;46.80
21502;DHT22;27639;48.674;9.242;2023-07-31T08:57:25;25.50;46.90
21502;DHT22;27639;48.674;9.242;2023-07-31T08:59:50;25.80;46.20
21502;DHT22;27639;48.674;9.242;2023-07-31T09:02:17;25.90;46.10
21502;DHT22;27639;48.674;9.242;2023-07-31T09:04:44;26.00;45.50
21502;DHT22;27639;48.674;9.242;2023-07-31T09:07:10;26.10;44.90
21502;DHT22;27639;48.674;9.242;2023-07-31T09:09:38;26.00;44.10
21502;DHT22;27639;48.674;9.242;2023-07-31T09:12:04;25.90;44.60
21502;DHT22;27639;48.674;9.242;2023-07-31T09:14:30;25.80;44.00
21502;DHT22;27639;48.674;9.242;2023-07-31T09:16:58;25.60;44.00
21502;DHT22;27639;48.674;9.242;2023-07-31T09:19:32;25.50;44.20
21502;DHT22;27639;48.674;9.242;2023-07-31T09:21:59;25.30;44.00
21502;DHT22;27639;48.674;9.242;2023-07-31T09:24:29;25.20;44.80
21502;DHT22;27639;48.674;9.242;2023-07-31T09:26:56;25.10;44.90
21502;DHT22;27639;48.674;9.242;2023-07-31T09:29:22;25.10;44.60
21502;DHT22;27639;48.674;9.242;2023-07-31T09:31:48;25.00;44.90
21502;DHT22;27639;48.674;9.242;2023-07-31T09:34:14;25.00;44.80
21502;DHT22;27639;48.674;9.242;2023-07-31T09:36:44;25.00;45.20
21502;DHT22;27639;48.674;9.242;2023-07-31T09:39:11;25.00;44.90
21502;DHT22;27639;48.674;9.242;2023-07-31T09:41:44;25.00;45.10
21502;DHT22;27639;48.674;9.242;2023-07-31T09:44:10;25.20;45.40
21502;DHT22;27639;48.674;9.242;2023-07-31T09:46:36;25.30;45.30
21502;DHT22;27639;48.674;9.242;2023-07-31T09:49:06;25.30;45.40
21502;DHT22;27639;48.674;9.242;2023-07-31T09:51:32;25.30;45.00
21502;DHT22;27639;48.674;9.242;2023-07-31T09:54:03;25.30;45.10
21502;DHT22;27639;48.674;9.242;2023-07-31T09:56:29;25.30;45.30
21502;DHT22;27639;48.674;9.242;2023-07-31T09:58:56;25.40;45.40
21502;DHT22;27639;48.674;9.242;2023-07-31T10:01:22;25.30;45.40
21502;DHT22;27639;48.674;9.242;2023-07-31T10:03:48;25.20;45.00
21502;DHT22;27639;48.674;9.242;2023-07-31T10:06:14;25.10;45.30
21502;DHT22;27639;48.674;9.242;2023-07-31T10:08:42;25.00;44.90
21502;DHT22;27639;48.674;9.242;2023-07-31T10:11:09;25.00;45.20
21502;DHT22;27639;48.674;9.242;2023-07-31T10:13:35;25.00;45.40
21502;DHT22;27639;48.674;9.242;2023-07-31T10:16:02;25.00;45.60
21502;DHT22;27639;48.674;9.242;2023-07-31T10:18:28;25.00;45.50
21502;DHT22;27639;48.674;9.242;2023-07-31T10:20:55;25.00;45.50
21502;DHT22;27639;48.674;9.242;2023-07-31T10:23:22;24.90;45.40
21502;DHT22;27639;48.674;9.242;2023-07-31T10:25:48;25.00;45.50
21502;DHT22;27639;48.674;9.242;2023-07-31T10:28:15;25.10;45.30
21502;DHT22;27639;48.674;9.242;2023-07-31T10:30:41;25.10;45.40
21502;DHT22;27639;48.674;9.242;2023-07-31T10:33:07;25.20;45.50
21502;DHT22;27639;48.674;9.242;2023-07-31T10:35:33;25.30;45.90
21502;DHT22;27639;48.674;9.242;2023-07-31T10:38:12;25.20;45.40
21502;DHT22;27639;48.674;9.242;2023-07-31T10:40:37;25.20;44.90
21502;DHT22;27639;48.674;9.242;2023-07-31T10:43:04;25.20;45.50
21502;DHT22;27639;48.674;9.242;2023-07-31T10:45:39;25.30;45.60
21502;DHT22;27639;48.674;9.242;2023-07-31T10:48:15;25.30;45.00
21502;DHT22;27639;48.674;9.242;2023-07-31T10:50:56;25.20;44.60
21502;DHT22;27639;48.674;9.242;2023-07-31T10:53:24;25.20;45.40
21502;DHT22;27639;48.674;9.242;2023-07-31T10:55:49;25.50;45.20
21502;DHT22;27639;48.674;9.242;2023-07-31T10:58:20;25.50;45.40
21502;DHT22;27639;48.674;9.242;2023-07-31T11:00:46;25.50;45.00
21502;DHT22;27639;48.674;9.242;2023-07-31T11:03:19;25.60;44.80
21502;DHT22;27639;48.674;9.242;2023-07-31T11:05:51;25.70;44.80
21502;DHT22;27639;48.674;9.242;2023-07-31T11:08:26;25.70;44.90
21502;DHT22;27639;48.674;9.242;2023-07-31T11:13:30;25.70;44.40
21502;DHT22;27639;48.674;9.242;2023-07-31T11:15:56;25.90;44.60
21502;DHT22;27639;48.674;9.242;2023-07-31T11:18:22;26.00;44.60
21502;DHT22;27639;48.674;9.242;2023-07-31T11:20:47;26.00;43.90
21502;DHT22;27639;48.674;9.242;2023-07-31T11:23:16;26.10;44.20
21502;DHT22;27639;48.674;9.242;2023-07-31T11:25:42;26.20;44.60
21502;DHT22;27639;48.674;9.242;2023-07-31T11:28:10;26.20;44.50
21502;DHT22;27639;48.674;9.242;2023-07-31T11:30:37;26.20;43.90
21502;DHT22;27639;48.674;9.242;2023-07-31T11:33:03;26.10;43.90
21502;DHT22;27639;48.674;9.242;2023-07-31T11:35:34;26.10;43.90
21502;DHT22;27639;48.674;9.242;2023-07-31T11:38:01;26.20;44.10
21502;DHT22;27639;48.674;9.242;2023-07-31T11:40:27;26.20;44.30
21502;DHT22;27639;48.674;9.242;2023-07-31T11:42:59;26.20;44.20
21502;DHT22;27639;48.674;9.242;2023-07-31T11:45:30;26.20;44.30
21502;DHT22;27639;48.674;9.242;2023-07-31T11:47:56;26.30;44.20
21502;DHT22;27639;48.674;9.242;2023-07-31T11:50:23;26.30;44.00
21502;DHT22;27639;48.674;9.242;2023-07-31T11:52:54;26.30;43.80
21502;DHT22;27639;48.674;9.242;2023-07-31T11:55:22;26.30;43.90
21502;DHT22;27639;48.674;9.242;2023-07-31T11:57:48;26.20;44.00
21502;DHT22;27639;48.674;9.242;2023-07-31T12:00:14;26.20;44.10
21502;DHT22;27639;48.674;9.242;2023-07-31T12:02:41;26.20;44.00
21502;DHT22;27639;48.674;9.242;2023-07-31T12:05:11;26.10;44.70
21502;DHT22;27639;48.674;9.242;2023-07-31T12:07:51;26.10;44.20
21502;DHT22;27639;48.674;9.242;2023-07-31T12:10:31;26.10;44.20
21502;DHT22;27639;48.674;9.242;2023-07-31T12:13:08;26.00;44.40
21502;DHT22;27639;48.674;9.242;2023-07-31T12:15:40;25.90;44.80
21502;DHT22;27639;48.674;9.242;2023-07-31T12:18:08;25.90;45.20
21502;DHT22;27639;48.674;9.242;2023-07-31T12:20:34;26.00;44.90
21502;DHT22;27639;48.674;9.242;2023-07-31T12:23:01;25.90;45.00
21502;DHT22;27639;48.674;9.242;2023-07-31T12:25:31;25.90;45.30
21502;DHT22;27639;48.674;9.242;2023-07-31T12:27:57;25.80;45.30
21502;DHT22;27639;48.674;9.242;2023-07-31T12:30:27;25.80;45.30
21502;DHT22;27639;48.674;9.242;2023-07-31T12:32:53;25.80;45.30
21502;DHT22;27639;48.674;9.242;2023-07-31T12:35:19;25.80;45.40
21502;DHT22;27639;48.674;9.242;2023-07-31T12:37:44;25.80;45.30
21502;DHT22;27639;48.674;9.242;2023-07-31T12:40:10;25.80;45.30
21502;DHT22;27639;48.674;9.242;2023-07-31T12:42:36;25.80;45.30
21502;DHT22;27639;48.674;9.242;2023-07-31T12:45:02;25.80;45.30
21502;DHT22;27639;48.674;9.242;2023-07-31T12:47:29;25.80;45.30
21502;DHT22;27639;48.674;9.242;2023-07-31T12:49:55;25.80;45.40
21502;DHT22;27639;48.674;9.242;2023-07-31T12:52:20;25.70;45.60
21502;DHT22;27639;48.674;9.242;2023-07-31T12:54:46;25.60;45.70
21502;DHT22;27639;48.674;9.242;2023-07-31T12:57:11;25.70;45.90
21502;DHT22;27639;48.674;9.242;2023-07-31T12:59:37;25.60;46.00
21502;DHT22;27639;48.674;9.242;2023-07-31T13:02:03;25.50;46.00
21502;DHT22;27639;48.674;9.242;2023-07-31T13:04:28;25.60;46.00
21502;DHT22;27639;48.674;9.242;2023-07-31T13:06:54;25.70;45.90
21502;DHT22;27639;48.674;9.242;2023-07-31T13:09:20;25.70;45.80
21502;DHT22;27639;48.674;9.242;2023-07-31T13:11:46;25.70;45.60
21502;DHT22;27639;48.674;9.242;2023-07-31T13:14:11;25.70;45.30
21502;DHT22;27639;48.674;9.242;2023-07-31T13:16:37;25.80;45.30
21502;DHT22;27639;48.674;9.242;2023-07-31T13:19:03;25.80;45.40
21502;DHT22;27639;48.674;9.242;2023-07-31T13:21:29;25.80;45.50
21502;DHT22;27639;48.674;9.242;2023-07-31T13:23:54;25.80;45.50
21502;DHT22;27639;48.674;9.242;2023-07-31T13:26:23;25.80;44.90
21502;DHT22;27639;48.674;9.242;2023-07-31T13:28:48;25.80;45.00
21502;DHT22;27639;48.674;9.242;2023-07-31T13:31:14;25.80;45.30
21502;DHT22;27639;48.674;9.242;2023-07-31T13:33:40;25.80;45.30
21502;DHT22;27639;48.674;9.242;2023-07-31T13:36:05;25.80;45.50
21502;DHT22;27639;48.674;9.242;2023-07-31T13:38:31;25.80;45.70
21502;DHT22;27639;48.674;9.242;2023-07-31T13:40:57;25.80;45.60
21502;DHT22;27639;48.674;9.242;2023-07-31T13:43:23;25.80;46.00
21502;DHT22;27639;48.674;9.242;2023-07-31T13:45:48;25.80;46.00
21502;DHT22;27639;48.674;9.242;2023-07-31T13:48:14;25.80;46.00
21502;DHT22;27639;48.674;9.242;2023-07-31T13:50:39;25.80;45.70
21502;DHT22;27639;48.674;9.242;2023-07-31T13:53:05;25.80;46.60
21502;DHT22;27639;48.674;9.242;2023-07-31T13:55:30;25.80;46.20
21502;DHT22;27639;48.674;9.242;2023-07-31T13:57:56;25.70;46.40
21502;DHT22;27639;48.674;9.242;2023-07-31T14:00:21;25.80;46.50
21502;DHT22;27639;48.674;9.242;2023-07-31T14:02:47;25.80;46.50
21502;DHT22;27639;48.674;9.242;2023-07-31T14:05:13;25.90;46.80
21502;DHT22;27639;48.674;9.242;2023-07-31T14:07:38;25.80;47.50
21502;DHT22;27639;48.674;9.242;2023-07-31T14:10:04;25.80;46.90
21502;DHT22;27639;48.674;9.242;2023-07-31T14:12:30;25.90;47.10
21502;DHT22;27639;48.674;9.242;2023-07-31T14:14:56;25.80;46.80
21502;DHT22;27639;48.674;9.242;2023-07-31T14:17:21;25.80;46.70
21502;DHT22;27639;48.674;9.242;2023-07-31T14:19:47;25.90;46.60
21502;DHT22;27639;48.674;9.242;2023-07-31T14:22:12;25.90;46.30
21502;DHT22;27639;48.674;9.242;2023-07-31T14:24:38;25.80;45.90
21502;DHT22;27639;48.674;9.242;2023-07-31T14:27:04;25.70;45.90
21502;DHT22;27639;48.674;9.242;2023-07-31T14:29:30;25.60;46.50
21502;DHT22;27639;48.674;9.242;2023-07-31T14:31:55;25.60;46.00
21502;DHT22;27639;48.674;9.242;2023-07-31T14:34:21;25.70;45.90
21502;DHT22;27639;48.674;9.242;2023-07-31T14:36:46;25.60;45.70
21502;DHT22;27639;48.674;9.242;2023-07-31T14:39:12;25.60;45.70
21502;DHT22;27639;48.674;9.242;2023-07-31T14:41:38;25.60;45.80
21502;DHT22;27639;48.674;9.242;2023-07-31T14:44:03;25.70;45.90
21502;DHT22;27639;48.674;9.242;2023-07-31T14:46:29;25.70;45.70
21502;DHT22;27639;48.674;9.242;2023-07-31T14:48:54;25.80;45.90
21502;DHT22;27639;48.674;9.242;2023-07-31T14:51:20;25.80;45.60
21502;DHT22;27639;48.674;9.242;2023-07-31T14:53:46;25.80;45.70
21502;DHT22;27639;48.674;9.242;2023-07-31T14:56:12;25.70;45.60
21502;DHT22;27639;48.674;9.242;2023-07-31T14:58:38;25.70;45.70
21502;DHT22;27639;48.674;9.242;2023-07-31T15:01:03;25.70;45.60
21502;DHT22;27639;48.674;9.242;2023-07-31T15:03:29;25.80;46.00
21502;DHT22;27639;48.674;9.242;2023-07-31T15:05:54;25.80;45.70
21502;DHT22;27639;48.674;9.242;2023-07-31T15:08:20;25.80;45.60
21502;DHT22;27639;48.674;9.242;2023-07-31T15:10:46;25.80;45.50
21502;DHT22;27639;48.674;9.242;2023-07-31T15:13:11;25.80;45.40
21502;DHT22;27639;48.674;9.242;2023-07-31T15:15:37;25.80;45.60
21502;DHT22;27639;48.674;9.242;2023-07-31T15:18:03;25.90;45.60
21502;DHT22;27639;48.674;9.242;2023-07-31T15:20:28;25.80;45.40
21502;DHT22;27639;48.674;9.242;2023-07-31T15:22:55;25.80;45.50
21502;DHT22;27639;48.674;9.242;2023-07-31T15:25:20;25.80;45.30
21502;DHT22;27639;48.674;9.242;2023-07-31T15:27:46;25.80;45.30
21502;DHT22;27639;48.674;9.242;2023-07-31T15:30:12;25.80;45.30
21502;DHT22;27639;48.674;9.242;2023-07-31T15:32:38;25.90;45.20
21502;DHT22;27639;48.674;9.242;2023-07-31T15:35:05;25.90;45.30